createdAt,value
2023-05-04T00:00:11.554Z,41.80
2023-05-04T00:02:39.132Z,41.33
2023-05-04T00:05:07.232Z,41.76
2023-05-04T00:07:34.539Z,41.74
2023-05-04T00:10:01.435Z,41.74
2023-05-04T00:12:28.596Z,41.78
2023-05-04T00:14:55.696Z,42.08
2023-05-04T00:17:22.820Z,41.88
2023-05-04T00:19:49.716Z,42.03
2023-05-04T00:22:16.910Z,41.96
2023-05-04T00:24:46.382Z,42.31
2023-05-04T00:27:13.273Z,42.38
2023-05-04T00:29:40.770Z,42.42
2023-05-04T00:32:07.731Z,42.55
2023-05-04T00:34:34.674Z,42.56
2023-05-04T00:37:01.796Z,42.58
2023-05-04T00:39:29.387Z,42.83
2023-05-04T00:41:56.249Z,42.67
2023-05-04T00:44:25.938Z,42.69
2023-05-04T00:46:53.203Z,42.61
2023-05-04T00:49:21.651Z,42.83
2023-05-04T00:51:50.221Z,42.90
2023-05-04T00:54:20.448Z,42.80
2023-05-04T00:56:48.108Z,42.86
2023-05-04T00:59:14.925Z,42.93
2023-05-04T01:01:42.501Z,42.89
2023-05-04T01:04:09.947Z,42.93
2023-05-04T01:07:00.942Z,43.33
2023-05-04T01:09:49.374Z,43.48
2023-05-04T01:12:29.994Z,43.56
2023-05-04T01:14:57.267Z,43.26
2023-05-04T01:17:24.285Z,43.58
2023-05-04T01:19:53.804Z,43.52
2023-05-04T01:22:21.851Z,43.51
2023-05-04T01:24:55.823Z,43.46
2023-05-04T01:31:04.962Z,43.46
2023-05-04T01:33:32.125Z,43.43
2023-05-04T01:35:59.525Z,43.70
2023-05-04T01:38:26.532Z,43.83
2023-05-04T01:40:53.414Z,43.84
2023-05-04T01:43:20.317Z,43.86
2023-05-04T01:45:47.187Z,44.04
2023-05-04T01:48:14.012Z,43.98
2023-05-04T01:50:41.121Z,44.11
2023-05-04T01:53:08.635Z,44.02
2023-05-04T01:55:35.547Z,44.22
2023-05-04T01:58:02.460Z,44.27
2023-05-04T02:00:29.337Z,44.21
2023-05-04T02:02:58.786Z,44.14
2023-05-04T02:05:26.151Z,44.26
2023-05-04T02:07:52.966Z,44.27
2023-05-04T02:10:19.797Z,44.33
2023-05-04T02:12:47.452Z,44.42
2023-05-04T02:15:17.504Z,44.82
2023-05-04T02:17:44.467Z,44.59
2023-05-04T02:20:15.086Z,44.48
2023-05-04T02:22:46.148Z,44.19
2023-05-04T02:25:12.954Z,44.33
2023-05-04T02:27:42.777Z,44.35
2023-05-04T02:30:14.743Z,44.82
2023-05-04T02:32:41.585Z,44.56
2023-05-04T02:35:09.063Z,44.73
2023-05-04T02:37:35.850Z,44.65
2023-05-04T02:40:04.484Z,44.85
2023-05-04T02:42:32.298Z,44.89
2023-05-04T02:44:59.119Z,44.75
2023-05-04T02:47:26.086Z,44.75
2023-05-04T02:49:52.913Z,44.90
2023-05-04T02:52:19.692Z,44.70
2023-05-04T02:54:46.539Z,44.96
2023-05-04T02:57:13.380Z,44.95
2023-05-04T02:59:40.148Z,44.67
2023-05-04T03:02:07.053Z,44.87
2023-05-04T03:04:34.198Z,44.75
2023-05-04T03:07:01.362Z,44.98
2023-05-04T03:09:28.119Z,44.84
2023-05-04T03:11:55.280Z,44.61
2023-05-04T03:14:22.124Z,44.80
2023-05-04T03:16:49.115Z,44.92
2023-05-04T03:19:18.914Z,44.87
2023-05-04T03:21:46.590Z,44.61
2023-05-04T03:24:14.489Z,44.93
2023-05-04T03:26:41.473Z,44.60
2023-05-04T03:29:08.399Z,44.70
2023-05-04T03:31:35.853Z,44.73
2023-05-04T03:34:03.493Z,44.88
2023-05-04T03:36:30.775Z,44.86
2023-05-04T03:38:58.481Z,45.03
2023-05-04T03:41:25.538Z,44.90
2023-05-04T03:43:52.440Z,44.91
2023-05-04T03:46:19.728Z,44.78
2023-05-04T03:48:46.592Z,44.92
2023-05-04T03:51:15.935Z,44.91
2023-05-04T03:53:44.719Z,44.88
2023-05-04T03:56:13.400Z,45.13
2023-05-04T03:58:40.946Z,44.96
2023-05-04T04:01:08.240Z,45.20
2023-05-04T04:03:36.552Z,45.19
2023-05-04T04:06:03.805Z,45.31
2023-05-04T04:08:33.399Z,45.48
2023-05-04T04:11:00.271Z,45.21
2023-05-04T04:13:27.936Z,45.38
2023-05-04T04:15:55.044Z,45.64
2023-05-04T04:18:24.230Z,45.41
2023-05-04T04:20:51.520Z,45.50
2023-05-04T04:23:19.251Z,45.63
2023-05-04T04:25:46.905Z,45.96
2023-05-04T04:28:14.653Z,45.47
2023-05-04T04:30:41.698Z,45.86
2023-05-04T04:33:10.093Z,45.77
2023-05-04T04:35:37.263Z,45.91
2023-05-04T04:38:04.185Z,45.89
2023-05-04T04:40:31.197Z,46.06
2023-05-04T04:42:58.051Z,45.75
2023-05-04T04:45:24.946Z,46.10
2023-05-04T04:47:51.898Z,46.43
2023-05-04T04:50:19.189Z,46.19
2023-05-04T04:52:46.334Z,46.27
2023-05-04T04:55:15.383Z,46.56
2023-05-04T04:57:42.184Z,46.45
2023-05-04T05:00:10.220Z,46.33
2023-05-04T05:02:37.561Z,46.53
2023-05-04T05:05:04.883Z,46.50
2023-05-04T05:07:32.660Z,46.58
2023-05-04T05:09:59.484Z,46.86
2023-05-04T05:12:26.740Z,46.79
2023-05-04T05:14:53.529Z,46.88
2023-05-04T05:17:21.039Z,47.07
2023-05-04T05:19:48.136Z,46.89
2023-05-04T05:22:15.036Z,47.05
2023-05-04T05:24:42.339Z,46.94
2023-05-04T05:27:09.308Z,47.10
2023-05-04T05:29:37.017Z,47.14
2023-05-04T05:32:04.413Z,47.16
2023-05-04T05:34:31.285Z,47.33
2023-05-04T05:36:58.358Z,47.64
2023-05-04T05:39:25.204Z,47.35
2023-05-04T05:41:57.661Z,47.38
2023-05-04T05:44:24.660Z,47.14
2023-05-04T05:46:51.606Z,47.46
2023-05-04T05:49:18.435Z,47.35
2023-05-04T05:51:45.367Z,47.40
2023-05-04T05:54:12.365Z,47.68
2023-05-04T05:56:39.535Z,47.56
2023-05-04T05:59:06.349Z,47.46
2023-05-04T06:01:33.351Z,47.59
2023-05-04T06:04:00.615Z,47.85
2023-05-04T06:06:27.590Z,47.52
2023-05-04T06:08:54.444Z,47.54
2023-05-04T06:11:21.479Z,47.92
2023-05-04T06:13:48.335Z,47.80
2023-05-04T06:16:15.343Z,47.89
2023-05-04T06:18:42.268Z,48.11
2023-05-04T06:21:09.132Z,48.08
2023-05-04T06:23:36.661Z,48.33
2023-05-04T06:26:10.013Z,48.45
2023-05-04T06:28:36.996Z,48.40
2023-05-04T06:31:03.933Z,48.36
2023-05-04T06:33:31.197Z,48.22
2023-05-04T06:36:01.567Z,48.31
2023-05-04T06:38:28.388Z,48.63
2023-05-04T06:40:55.684Z,48.69
2023-05-04T06:43:22.531Z,48.55
2023-05-04T06:45:49.374Z,48.60
2023-05-04T06:48:17.004Z,48.47
2023-05-04T06:50:45.118Z,48.69
2023-05-04T06:53:12.033Z,48.81
2023-05-04T06:55:38.965Z,48.53
2023-05-04T06:58:06.131Z,48.32
2023-05-04T07:00:33.014Z,47.97
2023-05-04T07:03:00.031Z,48.14
2023-05-04T07:05:26.940Z,47.94
2023-05-04T07:07:53.794Z,47.65
2023-05-04T07:10:20.788Z,47.50
2023-05-04T07:12:49.462Z,47.26
2023-05-04T07:15:16.298Z,47.04
2023-05-04T07:17:43.200Z,46.86
2023-05-04T07:20:11.141Z,46.66
2023-05-04T07:22:38.046Z,46.40
2023-05-04T07:25:05.544Z,46.28
2023-05-04T07:27:32.567Z,46.16
2023-05-04T07:29:59.453Z,45.90
2023-05-04T07:32:26.330Z,45.64
2023-05-04T07:34:53.208Z,45.65
2023-05-04T07:37:20.106Z,45.38
2023-05-04T07:39:46.971Z,45.23
2023-05-04T07:42:14.059Z,44.91
2023-05-04T07:44:41.356Z,44.87
2023-05-04T07:47:08.660Z,44.72
2023-05-04T07:49:35.584Z,44.68
2023-05-04T07:52:08.346Z,44.57
2023-05-04T07:54:35.115Z,44.46
2023-05-04T07:57:03.572Z,43.98
2023-05-04T07:59:33.492Z,43.72
2023-05-04T08:02:00.674Z,43.30
2023-05-04T08:04:27.635Z,43.07
2023-05-04T08:06:54.530Z,42.39
2023-05-04T08:09:21.404Z,42.31
2023-05-04T08:11:51.806Z,41.89
2023-05-04T08:14:18.768Z,41.23
2023-05-04T08:16:47.770Z,41.28
2023-05-04T08:19:14.709Z,41.07
2023-05-04T08:21:41.594Z,40.65
2023-05-04T08:24:09.019Z,40.35
2023-05-04T08:26:39.485Z,40.25
2023-05-04T08:29:07.767Z,39.81
2023-05-04T08:31:35.239Z,39.33
2023-05-04T08:34:03.526Z,39.23
2023-05-04T08:36:30.602Z,39.35
2023-05-04T08:38:57.544Z,39.26
2023-05-04T08:41:24.529Z,38.85
2023-05-04T08:43:52.086Z,38.45
2023-05-04T08:46:19.040Z,38.21
2023-05-04T08:48:46.297Z,37.88
2023-05-04T08:51:15.661Z,37.48
2023-05-04T08:53:46.030Z,37.38
2023-05-04T08:56:14.318Z,37.09
2023-05-04T08:58:50.556Z,36.53
2023-05-04T09:01:19.162Z,36.36
2023-05-04T09:03:47.940Z,36.16
2023-05-04T09:06:19.528Z,35.68
2023-05-04T09:08:46.430Z,35.63
2023-05-04T09:11:13.716Z,35.86
2023-05-04T09:13:42.584Z,35.66
2023-05-04T09:16:09.529Z,35.23
2023-05-04T09:18:54.405Z,34.92
2023-05-04T09:21:30.179Z,34.50
2023-05-04T09:23:57.936Z,34.70
2023-05-04T09:26:32.787Z,34.12
2023-05-04T09:29:16.086Z,34.24
2023-05-04T09:31:52.134Z,34.45
2023-05-04T09:34:22.590Z,33.69
2023-05-04T09:37:03.651Z,33.96
2023-05-04T09:39:30.718Z,34.31
2023-05-04T09:41:57.568Z,34.06
2023-05-04T09:44:26.989Z,33.57
2023-05-04T09:47:00.537Z,33.54
2023-05-04T09:49:37.538Z,33.22
2023-05-04T09:52:06.783Z,33.16
2023-05-04T09:54:36.141Z,32.99
2023-05-04T09:57:15.237Z,32.57
2023-05-04T09:59:42.689Z,33.13
2023-05-04T10:02:21.787Z,32.67
2023-05-04T10:04:57.168Z,32.44
2023-05-04T10:07:24.903Z,32.29
2023-05-04T10:09:53.045Z,32.40
2023-05-04T10:12:19.945Z,32.37
2023-05-04T10:14:47.458Z,32.34
2023-05-04T10:17:40.037Z,31.93
2023-05-04T10:20:44.030Z,31.56
2023-05-04T10:23:47.615Z,32.00
2023-05-04T10:26:44.087Z,31.56
2023-05-04T10:29:28.499Z,31.23
2023-05-04T10:31:59.366Z,30.89
2023-05-04T10:34:32.533Z,31.01
2023-05-04T10:37:01.505Z,30.89
2023-05-04T10:39:31.708Z,31.20
2023-05-04T10:42:08.384Z,30.66
2023-05-04T10:44:53.703Z,30.66
2023-05-04T10:47:50.817Z,30.11
2023-05-04T10:50:19.860Z,30.14
2023-05-04T10:52:53.982Z,30.28
2023-05-04T10:55:22.011Z,29.61
2023-05-04T10:57:55.316Z,29.82
2023-05-04T11:00:24.371Z,29.60
2023-05-04T11:02:52.453Z,29.52
2023-05-04T11:05:20.324Z,28.98
2023-05-04T11:07:50.782Z,29.16
2023-05-04T11:10:27.784Z,29.06
2023-05-04T11:13:05.746Z,29.00
2023-05-04T11:15:52.389Z,28.74
2023-05-04T11:18:31.843Z,28.85
2023-05-04T11:20:59.424Z,28.27
2023-05-04T11:23:28.250Z,27.90
2023-05-04T11:25:55.387Z,27.33
2023-05-04T11:28:38.827Z,27.11
2023-05-04T11:31:15.361Z,27.47
2023-05-04T11:33:51.456Z,26.88
2023-05-04T11:36:19.507Z,26.86
2023-05-04T11:38:47.415Z,26.51
2023-05-04T11:41:14.507Z,26.80
2023-05-04T11:43:44.750Z,27.11
2023-05-04T11:46:12.845Z,26.57
2023-05-04T11:48:41.208Z,26.70
2023-05-04T11:51:08.071Z,26.46
2023-05-04T11:53:39.650Z,26.11
2023-05-04T11:56:08.851Z,26.06
2023-05-04T11:58:36.562Z,25.63
2023-05-04T12:01:07.118Z,25.10
2023-05-04T12:03:48.597Z,25.08
2023-05-04T12:06:32.376Z,25.12
2023-05-04T12:09:05.453Z,24.89
2023-05-04T12:11:32.941Z,25.03
2023-05-04T12:14:13.949Z,25.49
2023-05-04T12:16:42.956Z,25.21
2023-05-04T12:19:12.443Z,24.67
2023-05-04T12:21:53.919Z,24.54
2023-05-04T12:24:27.745Z,24.36
2023-05-04T12:26:54.727Z,24.09
2023-05-04T12:29:21.997Z,24.00
2023-05-04T12:31:48.941Z,24.21
2023-05-04T12:34:15.812Z,23.71
2023-05-04T12:36:44.300Z,23.48
2023-05-04T12:39:11.319Z,23.71
2023-05-04T12:41:38.156Z,23.35
2023-05-04T12:44:05.194Z,23.25
2023-05-04T12:46:32.078Z,22.91
2023-05-04T12:48:58.931Z,22.33
2023-05-04T12:51:26.081Z,22.29
2023-05-04T12:53:52.881Z,22.18
2023-05-04T12:56:19.785Z,22.28
2023-05-04T12:58:46.602Z,22.09
2023-05-04T13:01:13.527Z,21.95
2023-05-04T13:03:40.536Z,21.76
2023-05-04T13:06:07.785Z,21.40
2023-05-04T13:08:34.619Z,21.66
2023-05-04T13:11:01.498Z,21.25
2023-05-04T13:13:29.514Z,21.88
2023-05-04T13:15:57.160Z,21.21
2023-05-04T13:18:27.058Z,21.16
2023-05-04T13:21:00.094Z,21.00
2023-05-04T13:23:26.944Z,20.93
2023-05-04T13:25:54.046Z,21.24
2023-05-04T13:28:21.004Z,20.94
2023-05-04T13:30:48.308Z,20.37
2023-05-04T13:33:28.286Z,20.50
2023-05-04T13:36:01.846Z,20.40
2023-05-04T13:38:28.716Z,21.67
2023-05-04T13:40:56.134Z,20.74
2023-05-04T13:43:23.488Z,19.92
2023-05-04T13:45:51.262Z,19.54
2023-05-04T13:48:18.137Z,20.26
2023-05-04T13:50:45.058Z,20.10
2023-05-04T13:53:11.963Z,20.10
2023-05-04T13:55:38.925Z,19.91
2023-05-04T13:58:05.942Z,19.81
2023-05-04T14:00:33.716Z,19.06
2023-05-04T14:03:00.873Z,19.71
2023-05-04T14:05:27.838Z,18.90
2023-05-04T14:07:54.642Z,18.88
2023-05-04T14:10:24.036Z,18.31
2023-05-04T14:12:50.924Z,18.37
2023-05-04T14:15:22.251Z,18.51
2023-05-04T14:17:52.190Z,17.88
2023-05-04T14:20:21.461Z,17.93
2023-05-04T14:22:48.457Z,18.18
2023-05-04T14:25:15.670Z,17.96
2023-05-04T14:27:43.771Z,17.88
2023-05-04T14:30:11.605Z,17.57
2023-05-04T14:32:38.690Z,17.62
2023-05-04T14:35:12.063Z,18.29
2023-05-04T14:37:40.385Z,18.38
2023-05-04T14:40:09.731Z,18.07
2023-05-04T14:42:37.602Z,17.59
2023-05-04T14:45:06.912Z,17.99
2023-05-04T14:47:37.051Z,18.93
2023-05-04T14:50:07.443Z,18.04
2023-05-04T14:52:34.817Z,18.21
2023-05-04T14:55:06.428Z,17.49
2023-05-04T14:57:33.728Z,17.53
2023-05-04T15:00:00.763Z,17.75
2023-05-04T15:02:27.729Z,18.25
2023-05-04T15:04:54.559Z,18.13
2023-05-04T15:07:21.619Z,17.58
2023-05-04T15:09:48.518Z,17.66
2023-05-04T15:12:15.624Z,17.72
2023-05-04T15:14:42.446Z,17.05
2023-05-04T15:17:09.594Z,16.76
2023-05-04T15:19:40.540Z,17.00
2023-05-04T15:22:07.718Z,17.44
2023-05-04T15:24:34.603Z,17.51
2023-05-04T15:27:02.040Z,17.09
2023-05-04T15:29:29.153Z,17.22
2023-05-04T15:31:56.452Z,17.16
2023-05-04T15:34:23.323Z,17.36
2023-05-04T15:36:50.346Z,17.62
2023-05-04T15:39:17.184Z,17.71
2023-05-04T15:41:44.121Z,17.41
2023-05-04T15:44:11.098Z,17.16
2023-05-04T15:46:38.320Z,17.19
2023-05-04T15:49:05.448Z,17.66
2023-05-04T15:51:32.653Z,17.12
2023-05-04T15:53:59.733Z,17.67
2023-05-04T15:56:26.820Z,17.20
2023-05-04T15:58:53.845Z,16.85
2023-05-04T16:01:20.823Z,17.04
2023-05-04T16:03:47.790Z,17.34
2023-05-04T16:06:15.666Z,16.64
2023-05-04T16:08:42.855Z,16.72
2023-05-04T16:11:10.085Z,16.72
2023-05-04T16:13:37.006Z,16.34
2023-05-04T16:16:05.260Z,16.83
2023-05-04T16:18:32.171Z,16.80
2023-05-04T16:20:59.036Z,16.60
2023-05-04T16:23:28.073Z,16.36
2023-05-04T16:25:57.826Z,16.09
2023-05-04T16:28:24.828Z,16.02
2023-05-04T16:30:51.750Z,16.44
2023-05-04T16:33:19.719Z,16.07
2023-05-04T16:35:46.717Z,16.05
2023-05-04T16:38:13.563Z,15.96
2023-05-04T16:40:42.134Z,15.29
2023-05-04T16:43:10.549Z,15.38
2023-05-04T16:45:38.342Z,15.47
2023-05-04T16:48:06.340Z,14.61
2023-05-04T16:50:33.426Z,14.65
2023-05-04T16:53:00.485Z,14.76
2023-05-04T16:55:27.501Z,14.65
2023-05-04T16:57:58.077Z,14.54
2023-05-04T17:00:25.844Z,14.59
2023-05-04T17:02:53.149Z,14.29
2023-05-04T17:05:21.033Z,14.20
2023-05-04T17:07:48.088Z,14.60
2023-05-04T17:10:15.122Z,14.65
2023-05-04T17:12:42.427Z,14.81
2023-05-04T17:15:12.014Z,14.62
2023-05-04T17:17:38.977Z,15.14
2023-05-04T17:20:09.482Z,14.64
2023-05-04T17:22:36.925Z,14.94
2023-05-04T17:25:04.272Z,15.28
2023-05-04T17:27:31.236Z,14.95
2023-05-04T17:29:58.349Z,15.03
2023-05-04T17:32:25.491Z,15.48
2023-05-04T17:34:52.784Z,15.43
2023-05-04T17:37:19.879Z,15.81
2023-05-04T17:39:47.246Z,16.17
2023-05-04T17:42:16.074Z,16.15
2023-05-04T17:44:43.121Z,16.10
2023-05-04T17:47:10.247Z,16.53
2023-05-04T17:49:37.376Z,17.14
2023-05-04T17:52:04.656Z,17.41
2023-05-04T17:54:31.943Z,17.75
2023-05-04T17:56:59.164Z,17.72
2023-05-04T17:59:28.632Z,18.01
2023-05-04T18:01:55.760Z,18.41
2023-05-04T18:04:25.824Z,18.97
2023-05-04T18:06:53.278Z,19.51
2023-05-04T18:09:20.349Z,19.16
2023-05-04T18:11:50.194Z,19.62
2023-05-04T18:14:21.161Z,20.16
2023-05-04T18:16:51.603Z,20.35
2023-05-04T18:19:28.079Z,20.66
2023-05-04T18:21:58.177Z,21.30
2023-05-04T18:24:25.441Z,21.76
2023-05-04T18:34:08.593Z,22.13
2023-05-04T18:36:52.644Z,22.40
2023-05-04T18:39:20.378Z,23.02
2023-05-04T18:41:47.550Z,23.11
2023-05-04T18:44:17.246Z,23.43
2023-05-04T18:46:51.948Z,23.63
2023-05-04T18:49:19.213Z,23.41
2023-05-04T18:51:46.334Z,23.84
2023-05-04T18:54:17.803Z,23.74
2023-05-04T18:56:47.618Z,24.11
2023-05-04T18:59:14.673Z,24.15
2023-05-04T19:01:42.189Z,24.01
2023-05-04T19:04:09.324Z,24.33
2023-05-04T19:06:36.400Z,24.91
2023-05-04T19:09:03.949Z,24.87
2023-05-04T19:11:31.173Z,25.14
2023-05-04T19:13:58.875Z,25.32
2023-05-04T19:16:28.459Z,25.46
2023-05-04T19:18:55.775Z,25.73
2023-05-04T19:21:22.823Z,26.19
2023-05-04T19:23:49.876Z,26.34
2023-05-04T19:26:17.180Z,26.97
2023-05-04T19:28:44.182Z,27.31
2023-05-04T19:31:11.624Z,27.54
2023-05-04T19:33:48.038Z,27.76
2023-05-04T19:36:17.355Z,27.99
2023-05-04T19:38:44.503Z,28.06
2023-05-04T19:41:11.589Z,28.49
2023-05-04T19:43:38.905Z,28.85
2023-05-04T19:46:11.339Z,28.75
2023-05-04T19:48:39.286Z,29.17
2023-05-04T19:51:06.617Z,29.47
2023-05-04T19:53:33.672Z,29.98
2023-05-04T19:56:00.982Z,29.86
2023-05-04T19:58:30.341Z,30.15
2023-05-04T20:01:00.847Z,30.13
2023-05-04T20:03:28.009Z,30.56
2023-05-04T20:05:55.728Z,30.29
2023-05-04T20:08:22.732Z,30.16
2023-05-04T20:10:49.677Z,30.52
2023-05-04T20:13:16.794Z,30.96
2023-05-04T20:15:45.088Z,30.74
2023-05-04T20:18:12.170Z,31.06
2023-05-04T20:20:39.134Z,31.07
2023-05-04T20:23:06.196Z,31.64
2023-05-04T20:25:38.897Z,31.46
2023-05-04T20:28:06.066Z,32.06
2023-05-04T20:30:33.032Z,31.91
2023-05-04T20:33:00.175Z,32.57
2023-05-04T20:35:27.392Z,32.31
2023-05-04T20:37:54.489Z,32.53
2023-05-04T20:40:22.516Z,32.77
2023-05-04T20:42:52.421Z,33.16
2023-05-04T20:45:19.327Z,32.41
2023-05-04T20:47:46.644Z,32.85
2023-05-04T20:50:13.747Z,33.42
2023-05-04T20:52:40.967Z,33.64
2023-05-04T20:55:08.406Z,33.93
2023-05-04T20:57:35.566Z,33.84
2023-05-04T21:00:03.669Z,34.43
2023-05-04T21:02:31.291Z,34.23
2023-05-04T21:04:58.526Z,34.61
2023-05-04T21:07:25.588Z,34.42
2023-05-04T21:09:58.654Z,34.74
2023-05-04T21:12:26.092Z,34.96
2023-05-04T21:14:53.293Z,34.84
2023-05-04T21:17:20.631Z,35.35
2023-05-04T21:19:47.703Z,35.42
2023-05-04T21:22:17.770Z,35.70
2023-05-04T21:24:46.874Z,35.49
2023-05-04T21:27:14.180Z,35.90
2023-05-04T21:29:41.337Z,35.87
2023-05-04T21:32:08.367Z,36.04
2023-05-04T21:34:35.597Z,35.93
2023-05-04T21:37:03.686Z,36.12
2023-05-04T21:39:31.615Z,36.19
2023-05-04T21:42:04.240Z,36.14
2023-05-04T21:44:34.646Z,36.37
2023-05-04T21:47:05.261Z,36.87
2023-05-04T21:49:32.348Z,36.67
2023-05-04T21:51:59.510Z,36.90
2023-05-04T21:54:26.775Z,37.04
2023-05-04T21:56:54.214Z,37.25
2023-05-04T21:59:21.145Z,37.09
2023-05-04T22:01:48.152Z,37.10
2023-05-04T22:04:15.116Z,37.35
2023-05-04T22:06:42.422Z,37.35
2023-05-04T22:09:09.451Z,37.56
2023-05-04T22:11:36.952Z,37.29
2023-05-04T22:14:06.818Z,37.78
2023-05-04T22:16:33.893Z,37.85
2023-05-04T22:19:01.408Z,37.63
2023-05-04T22:21:28.565Z,37.53
2023-05-04T22:23:59.399Z,37.83
2023-05-04T22:26:26.471Z,37.60
2023-05-04T22:28:53.538Z,38.07
2023-05-04T22:31:21.037Z,38.04
2023-05-04T22:33:47.957Z,38.38
2023-05-04T22:36:14.888Z,38.11
2023-05-04T22:38:41.920Z,37.98
2023-05-04T22:41:09.072Z,38.36
2023-05-04T22:43:36.340Z,38.53
2023-05-04T22:46:03.495Z,38.54
2023-05-04T22:48:32.532Z,38.68
2023-05-04T22:51:01.317Z,38.80
2023-05-04T22:53:28.233Z,38.58
2023-05-04T22:55:55.509Z,38.89
2023-05-04T22:58:23.604Z,39.01
2023-05-04T23:00:50.845Z,38.97
2023-05-04T23:03:17.800Z,38.99
2023-05-04T23:05:45.141Z,38.96
2023-05-04T23:08:12.445Z,38.97
2023-05-04T23:10:43.757Z,39.08
2023-05-04T23:13:10.971Z,39.08
2023-05-04T23:15:37.968Z,39.25
2023-05-04T23:18:05.770Z,39.21
2023-05-04T23:20:33.571Z,39.69
2023-05-04T23:23:00.728Z,39.45
2023-05-04T23:25:27.608Z,39.65
2023-05-04T23:27:54.801Z,39.62
2023-05-04T23:30:21.726Z,39.57
2023-05-04T23:32:48.753Z,39.69
2023-05-04T23:35:15.726Z,39.78
2023-05-04T23:37:42.651Z,40.05
2023-05-04T23:40:10.428Z,39.99
2023-05-04T23:42:37.654Z,39.63
2023-05-04T23:45:08.187Z,40.30
2023-05-04T23:47:35.181Z,40.28
2023-05-04T23:50:02.139Z,40.33
2023-05-04T23:52:29.553Z,40.42
2023-05-04T23:54:56.470Z,40.54
2023-05-04T23:57:23.390Z,40.74
2023-05-04T23:59:50.267Z,40.63
